createdAt,value
2023-12-23T00:01:49.216Z,8.22
2023-12-23T00:04:15.957Z,8.16
2023-12-23T00:06:42.721Z,8.18
2023-12-23T00:09:09.426Z,8.12
2023-12-23T00:11:36.176Z,8.09
2023-12-23T00:14:02.864Z,8.01
2023-12-23T00:16:29.530Z,8.09
2023-12-23T00:18:56.379Z,8.07
2023-12-23T00:21:23.179Z,8.10
2023-12-23T00:23:49.824Z,7.97
2023-12-23T00:26:16.461Z,8.06
2023-12-23T00:28:44.870Z,7.98
2023-12-23T00:31:11.817Z,8.04
2023-12-23T00:33:40.055Z,7.99
2023-12-23T00:36:07.247Z,7.99
2023-12-23T00:38:35.777Z,7.98
2023-12-23T00:41:02.474Z,8.04
2023-12-23T00:43:29.143Z,8.06
2023-12-23T00:45:56.354Z,8.08
2023-12-23T00:48:23.669Z,8.01
2023-12-23T00:50:51.991Z,8.03
2023-12-23T00:53:18.988Z,8.11
2023-12-23T00:55:45.782Z,7.98
2023-12-23T00:58:12.546Z,8.00
2023-12-23T01:00:39.748Z,8.10
2023-12-23T01:03:06.451Z,8.12
2023-12-23T01:05:34.142Z,8.13
2023-12-23T01:08:00.882Z,8.08
2023-12-23T01:10:28.617Z,8.08
2023-12-23T01:12:56.442Z,8.16
2023-12-23T01:15:23.203Z,8.16
2023-12-23T01:17:50.182Z,8.18
2023-12-23T01:20:17.806Z,8.00
2023-12-23T01:22:45.737Z,8.19
2023-12-23T01:25:12.973Z,8.27
2023-12-23T01:27:39.738Z,8.21
2023-12-23T01:30:07.528Z,8.21
2023-12-23T01:32:34.413Z,8.18
2023-12-23T01:35:01.417Z,8.25
2023-12-23T01:37:28.191Z,8.27
2023-12-23T01:39:55.429Z,8.21
2023-12-23T01:42:22.096Z,8.29
2023-12-23T01:44:49.848Z,8.27
2023-12-23T01:47:17.278Z,8.30
2023-12-23T01:49:44.798Z,8.29
2023-12-23T01:52:12.120Z,8.32
2023-12-23T01:54:38.901Z,8.28
2023-12-23T01:57:05.709Z,8.29
2023-12-23T01:59:32.901Z,8.33
2023-12-23T02:02:00.547Z,8.30
2023-12-23T02:04:27.333Z,8.15
2023-12-23T02:06:53.988Z,8.33
2023-12-23T02:09:20.642Z,8.28
2023-12-23T02:12:15.369Z,8.38
2023-12-23T02:15:04.445Z,8.46
2023-12-23T02:17:31.969Z,8.45
2023-12-23T02:19:58.686Z,8.41
2023-12-23T02:22:25.387Z,8.41
2023-12-23T02:24:52.072Z,8.48
2023-12-23T02:27:23.681Z,8.47
2023-12-23T02:29:53.016Z,8.47
2023-12-23T02:32:20.987Z,8.38
2023-12-23T02:34:48.444Z,8.44
2023-12-23T02:37:15.147Z,8.49
2023-12-23T02:39:41.881Z,8.39
2023-12-23T02:42:08.564Z,8.50
2023-12-23T02:44:35.245Z,8.56
2023-12-23T02:47:02.174Z,8.50
2023-12-23T02:49:28.842Z,8.50
2023-12-23T02:51:57.032Z,8.52
2023-12-23T02:54:23.866Z,8.52
2023-12-23T02:56:50.552Z,8.54
2023-12-23T02:59:17.303Z,8.57
2023-12-23T03:01:44.064Z,8.62
2023-12-23T03:04:10.737Z,8.67
2023-12-23T03:06:38.425Z,8.75
2023-12-23T03:09:05.146Z,8.80
2023-12-23T03:11:31.866Z,8.88
2023-12-23T03:14:00.146Z,8.94
2023-12-23T03:16:30.728Z,9.03
2023-12-23T03:18:57.462Z,9.04
2023-12-23T03:21:24.849Z,8.92
2023-12-23T03:23:51.547Z,8.98
2023-12-23T03:26:18.286Z,8.92
2023-12-23T03:28:45.046Z,8.95
2023-12-23T03:31:12.593Z,8.95
2023-12-23T03:33:41.409Z,8.90
2023-12-23T03:36:08.590Z,8.92
2023-12-23T03:38:36.566Z,8.98
2023-12-23T03:41:03.201Z,8.97
2023-12-23T03:43:29.806Z,8.98
2023-12-23T03:45:56.441Z,9.05
2023-12-23T03:48:23.149Z,9.01
2023-12-23T03:50:49.813Z,8.94
2023-12-23T03:53:16.506Z,9.08
2023-12-23T03:55:45.616Z,9.19
2023-12-23T03:58:13.408Z,9.18
2023-12-23T04:00:40.185Z,9.19
2023-12-23T04:03:07.035Z,9.27
2023-12-23T04:05:34.668Z,9.26
2023-12-23T04:08:01.385Z,9.31
2023-12-23T04:10:28.038Z,9.33
2023-12-23T04:12:54.712Z,9.32
2023-12-23T04:15:21.757Z,9.39
2023-12-23T04:17:48.536Z,9.40
2023-12-23T04:20:15.439Z,9.44
2023-12-23T04:22:45.955Z,9.47
2023-12-23T04:25:12.986Z,9.39
2023-12-23T04:27:39.623Z,9.43
2023-12-23T04:30:08.492Z,9.32
2023-12-23T04:32:35.535Z,9.50
2023-12-23T04:35:02.664Z,9.49
2023-12-23T04:37:29.600Z,9.55
2023-12-23T04:39:56.370Z,9.54
2023-12-23T04:42:23.252Z,9.59
2023-12-23T04:44:49.966Z,9.56
2023-12-23T04:47:16.750Z,9.55
2023-12-23T04:49:43.470Z,9.61
2023-12-23T04:52:11.690Z,9.64
2023-12-23T04:54:38.399Z,9.61
2023-12-23T04:57:05.499Z,9.66
2023-12-23T04:59:33.309Z,9.65
2023-12-23T05:01:59.929Z,9.61
2023-12-23T05:04:26.605Z,9.71
2023-12-23T05:06:53.349Z,9.74
2023-12-23T05:09:19.968Z,9.71
2023-12-23T05:11:47.653Z,9.63
2023-12-23T05:14:14.838Z,9.70
2023-12-23T05:16:41.626Z,9.71
2023-12-23T05:19:08.530Z,9.73
2023-12-23T05:21:36.006Z,9.76
2023-12-23T05:24:02.663Z,9.81
2023-12-23T05:26:29.552Z,9.74
2023-12-23T05:28:56.403Z,9.79
2023-12-23T05:31:23.237Z,9.75
2023-12-23T05:33:53.335Z,9.78
2023-12-23T05:36:20.114Z,9.81
2023-12-23T05:38:46.759Z,9.78
2023-12-23T05:41:13.512Z,9.81
2023-12-23T05:43:40.351Z,9.78
2023-12-23T05:46:07.068Z,9.77
2023-12-23T05:48:34.886Z,9.81
2023-12-23T05:51:01.600Z,9.84
2023-12-23T05:53:30.334Z,9.74
2023-12-23T05:55:57.189Z,9.78
2023-12-23T05:58:24.038Z,9.78
2023-12-23T06:00:51.266Z,9.73
2023-12-23T06:03:18.108Z,9.71
2023-12-23T06:05:44.821Z,9.64
2023-12-23T06:08:11.561Z,9.60
2023-12-23T06:10:50.230Z,9.61
2023-12-23T06:13:22.248Z,9.62
2023-12-23T06:15:48.987Z,9.60
2023-12-23T06:18:16.312Z,9.46
2023-12-23T06:20:43.167Z,9.39
2023-12-23T06:23:09.807Z,9.38
2023-12-23T06:25:36.498Z,9.36
2023-12-23T06:28:03.301Z,9.31
2023-12-23T06:30:30.028Z,9.27
2023-12-23T06:32:56.741Z,9.28
2023-12-23T06:35:23.468Z,9.29
2023-12-23T06:37:50.178Z,9.30
2023-12-23T06:40:17.185Z,9.29
2023-12-23T06:42:43.852Z,9.26
2023-12-23T06:45:12.922Z,9.28
2023-12-23T06:47:39.839Z,9.25
2023-12-23T06:50:07.284Z,9.21
2023-12-23T06:52:34.082Z,9.24
2023-12-23T06:55:00.851Z,9.24
2023-12-23T06:57:27.556Z,9.11
2023-12-23T06:59:54.203Z,9.24
2023-12-23T07:02:21.054Z,9.23
2023-12-23T07:04:47.917Z,9.20
2023-12-23T07:07:14.649Z,9.24
2023-12-23T07:09:41.249Z,9.28
2023-12-23T07:12:09.438Z,9.26
2023-12-23T07:14:36.371Z,9.17
2023-12-23T07:17:03.057Z,9.29
2023-12-23T07:19:29.665Z,9.34
2023-12-23T07:21:56.346Z,9.30
2023-12-23T07:24:22.945Z,9.25
2023-12-23T07:26:49.682Z,9.37
2023-12-23T07:29:18.024Z,9.33
2023-12-23T07:31:44.697Z,9.38
2023-12-23T07:34:11.437Z,9.38
2023-12-23T07:36:38.092Z,9.39
2023-12-23T07:39:06.357Z,9.50
2023-12-23T07:41:33.115Z,9.51
2023-12-23T07:43:59.874Z,9.59
2023-12-23T07:46:26.616Z,9.63
2023-12-23T07:48:53.328Z,9.63
2023-12-23T07:51:21.014Z,9.75
2023-12-23T07:53:47.832Z,9.72
2023-12-23T07:56:14.558Z,9.84
2023-12-23T07:58:41.266Z,9.84
2023-12-23T08:01:09.854Z,9.88
2023-12-23T08:03:36.534Z,9.85
2023-12-23T08:06:03.536Z,9.93
2023-12-23T08:08:30.343Z,9.99
2023-12-23T08:10:58.388Z,10.01
2023-12-23T08:13:25.147Z,10.03
2023-12-23T08:15:51.808Z,10.04
2023-12-23T08:18:19.162Z,10.03
2023-12-23T08:20:45.931Z,9.95
2023-12-23T08:23:12.888Z,10.10
2023-12-23T08:25:39.559Z,10.11
2023-12-23T08:28:08.103Z,10.03
2023-12-23T08:30:34.784Z,10.02
2023-12-23T08:33:02.183Z,10.17
2023-12-23T08:35:29.020Z,10.26
2023-12-23T08:37:55.938Z,10.28
2023-12-23T08:40:22.639Z,10.31
2023-12-23T08:42:49.568Z,10.33
2023-12-23T08:45:16.381Z,10.22
2023-12-23T08:47:43.879Z,10.33
2023-12-23T08:50:11.281Z,10.34
2023-12-23T08:52:37.921Z,10.41
2023-12-23T08:55:04.877Z,10.28
2023-12-23T08:57:31.918Z,10.36
2023-12-23T08:59:58.648Z,10.40
2023-12-23T09:02:28.027Z,10.43
2023-12-23T09:04:55.155Z,10.47
2023-12-23T09:07:21.848Z,10.42
2023-12-23T09:09:48.506Z,10.46
2023-12-23T09:12:15.193Z,10.51
2023-12-23T09:14:41.861Z,10.50
2023-12-23T09:17:08.616Z,10.48
2023-12-23T09:19:35.308Z,10.50
2023-12-23T09:22:02.102Z,10.44
2023-12-23T09:24:28.952Z,10.51
2023-12-23T09:26:55.640Z,10.49
2023-12-23T09:29:22.615Z,10.47
2023-12-23T09:31:49.322Z,10.49
2023-12-23T09:34:15.975Z,10.50
2023-12-23T09:36:42.679Z,10.41
2023-12-23T09:39:09.423Z,10.40
2023-12-23T09:41:36.137Z,10.31
2023-12-23T09:44:02.887Z,10.37
2023-12-23T09:46:29.756Z,10.37
2023-12-23T09:48:56.616Z,10.36
2023-12-23T09:51:27.030Z,10.35
2023-12-23T09:53:59.508Z,10.40
2023-12-23T09:56:30.022Z,10.46
2023-12-23T09:58:57.362Z,10.43
2023-12-23T10:01:24.431Z,10.44
2023-12-23T10:03:52.052Z,10.38
2023-12-23T10:06:22.438Z,10.51
2023-12-23T10:08:50.581Z,10.58
2023-12-23T10:11:17.482Z,10.47
2023-12-23T10:13:44.295Z,10.54
2023-12-23T10:16:12.007Z,10.52
2023-12-23T10:18:41.828Z,10.59
2023-12-23T10:21:09.679Z,10.56
2023-12-23T10:23:38.531Z,10.56
2023-12-23T10:26:05.365Z,10.57
2023-12-23T10:28:33.347Z,10.57
2023-12-23T10:31:04.579Z,10.63
2023-12-23T10:33:34.447Z,10.53
2023-12-23T10:36:02.909Z,10.56
2023-12-23T10:38:30.826Z,10.68
2023-12-23T10:41:19.058Z,10.67
2023-12-23T10:43:46.572Z,10.74
2023-12-23T10:46:15.586Z,10.76
2023-12-23T10:48:43.905Z,10.70
2023-12-23T10:51:12.317Z,10.74
2023-12-23T10:53:39.694Z,10.78
2023-12-23T10:56:08.639Z,10.74
2023-12-23T10:58:36.346Z,10.79
2023-12-23T11:01:04.466Z,10.82
2023-12-23T11:03:33.704Z,10.80
2023-12-23T11:06:05.229Z,10.79
2023-12-23T11:08:33.986Z,10.85
2023-12-23T11:11:01.327Z,10.84
2023-12-23T11:13:28.115Z,10.84
2023-12-23T11:15:56.930Z,10.78
2023-12-23T11:18:23.769Z,10.82
2023-12-23T11:20:51.546Z,10.88
2023-12-23T11:23:27.835Z,10.95
2023-12-23T11:25:58.133Z,10.91
2023-12-23T11:28:30.341Z,10.84
2023-12-23T11:30:59.889Z,10.95
2023-12-23T11:33:29.450Z,10.96
2023-12-23T11:36:01.820Z,10.91
2023-12-23T11:38:30.658Z,10.98
2023-12-23T11:40:57.802Z,11.02
2023-12-23T11:43:24.569Z,11.02
2023-12-23T11:45:51.729Z,11.07
2023-12-23T11:48:22.049Z,11.02
2023-12-23T11:50:49.220Z,10.98
2023-12-23T11:53:16.659Z,11.07
2023-12-23T11:55:44.092Z,11.13
2023-12-23T11:58:11.861Z,11.07
2023-12-23T12:00:41.669Z,11.16
2023-12-23T12:03:08.521Z,11.19
2023-12-23T12:05:35.333Z,11.24
2023-12-23T12:08:02.275Z,11.21
2023-12-23T12:10:29.182Z,11.30
2023-12-23T12:12:56.041Z,11.28
2023-12-23T12:15:22.749Z,11.29
2023-12-23T12:17:49.798Z,11.31
2023-12-23T12:20:16.898Z,11.33
2023-12-23T12:22:48.169Z,11.34
2023-12-23T12:25:16.966Z,11.15
2023-12-23T12:27:44.008Z,11.13
2023-12-23T12:30:12.682Z,11.21
2023-12-23T12:32:45.105Z,11.24
2023-12-23T12:35:13.258Z,11.31
2023-12-23T12:37:41.189Z,11.26
2023-12-23T12:40:14.570Z,11.31
2023-12-23T12:42:51.924Z,11.21
2023-12-23T12:45:19.044Z,11.39
2023-12-23T12:47:49.391Z,11.21
2023-12-23T12:50:19.179Z,11.36
2023-12-23T12:52:48.394Z,11.33
2023-12-23T12:55:15.498Z,11.35
2023-12-23T12:57:42.354Z,11.27
2023-12-23T13:00:10.431Z,11.29
2023-12-23T13:02:37.326Z,11.27
2023-12-23T13:05:04.657Z,11.25
2023-12-23T13:07:31.371Z,11.31
2023-12-23T13:09:58.057Z,11.19
2023-12-23T13:12:24.736Z,11.18
2023-12-23T13:14:51.378Z,11.17
2023-12-23T13:17:18.116Z,11.07
2023-12-23T13:19:45.030Z,11.22
2023-12-23T13:22:11.734Z,11.07
2023-12-23T13:24:38.767Z,11.23
2023-12-23T13:27:05.470Z,11.24
2023-12-23T13:29:32.217Z,11.27
2023-12-23T13:31:59.891Z,11.25
2023-12-23T13:34:26.646Z,11.24
2023-12-23T13:36:53.368Z,11.14
2023-12-23T13:39:20.135Z,11.17
2023-12-23T13:41:47.051Z,11.24
2023-12-23T13:44:13.739Z,11.23
2023-12-23T13:46:40.455Z,11.25
2023-12-23T13:49:08.159Z,11.23
2023-12-23T13:51:35.042Z,11.23
2023-12-23T13:54:01.706Z,11.28
2023-12-23T13:56:28.353Z,11.25
2023-12-23T13:58:55.108Z,11.16
2023-12-23T14:01:22.729Z,11.11
2023-12-23T14:03:49.629Z,11.19
2023-12-23T14:06:16.340Z,11.12
2023-12-23T14:08:43.042Z,11.13
2023-12-23T14:11:09.715Z,11.14
2023-12-23T14:13:36.401Z,11.06
2023-12-23T14:16:03.083Z,11.15
2023-12-23T14:18:30.025Z,11.09
2023-12-23T14:20:56.735Z,11.07
2023-12-23T14:23:23.506Z,11.08
2023-12-23T14:25:50.327Z,11.14
2023-12-23T14:28:18.908Z,11.15
2023-12-23T14:30:45.882Z,11.14
2023-12-23T14:33:12.858Z,10.81
2023-12-23T14:35:39.727Z,11.12
2023-12-23T14:38:06.463Z,11.09
2023-12-23T14:40:33.267Z,11.09
2023-12-23T14:43:00.148Z,10.96
2023-12-23T14:45:26.794Z,11.08
2023-12-23T14:47:53.585Z,11.08
2023-12-23T14:50:22.190Z,10.98
2023-12-23T14:52:49.556Z,11.05
2023-12-23T14:55:16.899Z,11.01
2023-12-23T14:57:44.008Z,11.11
2023-12-23T15:00:11.645Z,11.10
2023-12-23T15:02:38.842Z,11.05
2023-12-23T15:05:08.332Z,11.06
2023-12-23T15:07:35.025Z,11.06
2023-12-23T15:10:01.710Z,11.09
2023-12-23T15:12:28.743Z,11.04
2023-12-23T15:14:55.533Z,11.06
2023-12-23T15:17:22.242Z,11.04
2023-12-23T15:19:49.054Z,11.02
2023-12-23T15:22:15.787Z,11.07
2023-12-23T15:24:42.490Z,11.06
2023-12-23T15:27:09.276Z,11.06
2023-12-23T15:29:36.113Z,11.00
2023-12-23T15:32:04.409Z,11.02
2023-12-23T15:34:31.096Z,11.01
2023-12-23T15:36:58.806Z,11.01
2023-12-23T15:39:27.861Z,11.01
2023-12-23T15:41:54.544Z,11.01
2023-12-23T15:44:23.474Z,10.96
2023-12-23T15:46:50.260Z,11.01
2023-12-23T15:49:17.018Z,10.98
2023-12-23T15:51:43.818Z,11.05
2023-12-23T15:54:11.085Z,10.99
2023-12-23T15:56:39.962Z,10.93
2023-12-23T15:59:07.028Z,11.00
2023-12-23T16:01:34.328Z,10.92
2023-12-23T16:04:01.529Z,10.85
2023-12-23T16:06:28.861Z,10.92
2023-12-23T16:08:55.642Z,10.96
2023-12-23T16:11:22.403Z,10.90
2023-12-23T16:13:49.451Z,10.92
2023-12-23T16:16:16.222Z,10.87
2023-12-23T16:18:43.151Z,10.86
2023-12-23T16:21:09.981Z,10.87
2023-12-23T16:23:36.763Z,10.83
2023-12-23T16:26:05.018Z,10.79
2023-12-23T16:28:32.002Z,10.73
2023-12-23T16:30:59.537Z,10.71
2023-12-23T16:33:26.411Z,10.66
2023-12-23T16:35:54.205Z,10.57
2023-12-23T16:38:21.054Z,10.67
2023-12-23T16:40:47.785Z,10.69
2023-12-23T16:43:15.811Z,10.72
2023-12-23T16:45:42.448Z,10.63
2023-12-23T16:48:09.872Z,10.78
2023-12-23T16:50:36.710Z,10.83
2023-12-23T16:53:03.523Z,10.79
2023-12-23T16:55:30.244Z,10.85
2023-12-23T16:57:57.039Z,10.88
2023-12-23T17:00:23.793Z,10.88
2023-12-23T17:02:50.803Z,10.93
2023-12-23T17:05:20.575Z,10.95
2023-12-23T17:07:47.938Z,10.95
2023-12-23T17:10:14.988Z,10.93
2023-12-23T17:12:41.750Z,10.98
2023-12-23T17:15:09.269Z,10.90
2023-12-23T17:17:35.994Z,11.01
2023-12-23T17:20:04.465Z,10.95
2023-12-23T17:22:31.288Z,10.98
2023-12-23T17:24:57.931Z,10.93
2023-12-23T17:27:24.658Z,10.94
2023-12-23T17:29:51.377Z,10.84
2023-12-23T17:32:18.209Z,10.80
2023-12-23T17:34:45.400Z,10.83
2023-12-23T17:37:12.071Z,10.77
2023-12-23T17:39:39.735Z,10.75
2023-12-23T17:42:06.440Z,10.71
2023-12-23T17:44:33.191Z,10.68
2023-12-23T17:47:00.039Z,10.66
2023-12-23T17:49:28.544Z,10.58
2023-12-23T17:51:55.531Z,10.52
2023-12-23T17:54:22.263Z,10.45
2023-12-23T17:56:49.499Z,10.48
2023-12-23T17:59:16.283Z,10.51
2023-12-23T18:01:42.943Z,10.48
2023-12-23T18:04:09.578Z,10.51
2023-12-23T18:06:36.258Z,10.52
2023-12-23T18:09:02.966Z,10.56
2023-12-23T18:11:29.774Z,10.51
2023-12-23T18:13:56.586Z,10.55
2023-12-23T18:16:23.306Z,10.61
2023-12-23T18:18:50.003Z,10.61
2023-12-23T18:21:18.762Z,10.66
2023-12-23T18:23:45.523Z,10.65
2023-12-23T18:26:12.476Z,10.62
2023-12-23T18:28:39.392Z,10.70
2023-12-23T18:31:06.371Z,10.69
2023-12-23T18:33:33.137Z,10.74
2023-12-23T18:36:00.030Z,10.83
2023-12-23T18:38:26.869Z,10.87
2023-12-23T18:40:53.648Z,10.91
2023-12-23T18:43:20.452Z,10.96
2023-12-23T18:45:47.635Z,10.96
2023-12-23T18:48:16.316Z,11.02
2023-12-23T18:50:43.382Z,11.04
2023-12-23T18:53:10.294Z,11.00
2023-12-23T18:55:38.257Z,11.02
2023-12-23T18:58:05.118Z,11.06
2023-12-23T19:00:32.728Z,11.11
2023-12-23T19:02:59.500Z,11.02
2023-12-23T19:05:26.498Z,11.00
2023-12-23T19:07:54.741Z,11.00
2023-12-23T19:10:23.332Z,11.02
2023-12-23T19:12:50.307Z,11.00
2023-12-23T19:15:17.123Z,11.01
2023-12-23T19:17:44.506Z,11.01
2023-12-23T19:20:11.987Z,11.02
2023-12-23T19:22:38.753Z,11.08
2023-12-23T19:25:08.094Z,11.11
2023-12-23T19:27:35.121Z,11.06
2023-12-23T19:30:02.125Z,11.11
2023-12-23T19:32:32.283Z,11.15
2023-12-23T19:34:59.087Z,11.13
2023-12-23T19:37:25.761Z,11.09
2023-12-23T19:39:59.807Z,11.07
2023-12-23T19:42:33.351Z,11.09
2023-12-23T19:45:00.036Z,10.96
2023-12-23T19:47:27.058Z,11.09
2023-12-23T19:49:53.717Z,11.14
2023-12-23T19:52:20.462Z,11.15
2023-12-23T19:54:47.273Z,11.13
2023-12-23T19:57:13.948Z,11.14
2023-12-23T19:59:40.641Z,11.15
2023-12-23T20:02:08.507Z,11.13
2023-12-23T20:04:35.184Z,11.08
2023-12-23T20:07:02.201Z,11.05
2023-12-23T20:09:29.115Z,11.05
2023-12-23T20:12:09.003Z,10.98
2023-12-23T20:14:36.093Z,11.03
2023-12-23T20:17:03.159Z,11.00
2023-12-23T20:19:29.956Z,10.99
2023-12-23T20:21:56.689Z,10.95
2023-12-23T20:24:23.428Z,10.98
2023-12-23T20:26:52.109Z,10.95
2023-12-23T20:29:18.974Z,10.94
2023-12-23T20:31:45.980Z,10.94
2023-12-23T20:34:12.901Z,10.97
2023-12-23T20:36:41.696Z,10.89
2023-12-23T20:39:11.284Z,10.90
2023-12-23T20:41:41.659Z,10.89
2023-12-23T20:44:09.346Z,10.91
2023-12-23T20:46:37.170Z,10.79
2023-12-23T20:49:04.818Z,10.75
2023-12-23T20:51:31.601Z,10.71
2023-12-23T20:53:58.339Z,10.60
2023-12-23T20:56:30.649Z,10.67
2023-12-23T20:58:58.384Z,10.64
2023-12-23T21:01:25.229Z,10.63
2023-12-23T21:03:53.276Z,10.64
2023-12-23T21:06:20.716Z,10.60
2023-12-23T21:08:49.318Z,10.60
2023-12-23T21:11:20.397Z,10.55
2023-12-23T21:13:47.504Z,10.55
2023-12-23T21:16:14.570Z,10.62
2023-12-23T21:18:45.603Z,10.60
2023-12-23T21:21:12.897Z,10.66
2023-12-23T21:23:39.648Z,10.69
2023-12-23T21:26:06.718Z,10.63
2023-12-23T21:28:33.491Z,10.69
2023-12-23T21:31:02.477Z,10.70
2023-12-23T21:33:29.464Z,10.74
2023-12-23T21:35:56.296Z,10.74
2023-12-23T21:38:23.155Z,10.70
2023-12-23T21:40:50.814Z,10.68
2023-12-23T21:43:17.623Z,10.72
2023-12-23T21:45:44.722Z,10.71
2023-12-23T21:48:12.629Z,10.70
2023-12-23T21:50:39.625Z,10.63
2023-12-23T21:53:06.422Z,10.68
2023-12-23T21:55:33.157Z,10.59
2023-12-23T21:57:59.902Z,10.55
2023-12-23T22:00:26.718Z,10.60
2023-12-23T22:02:54.313Z,10.65
2023-12-23T22:05:23.100Z,10.60
2023-12-23T22:07:49.942Z,10.60
2023-12-23T22:10:16.896Z,10.62
2023-12-23T22:12:43.573Z,10.59
2023-12-23T22:15:10.627Z,10.63
2023-12-23T22:17:37.430Z,10.63
2023-12-23T22:20:06.286Z,10.56
2023-12-23T22:22:33.009Z,10.62
2023-12-23T22:25:01.263Z,10.63
2023-12-23T22:27:28.074Z,10.52
2023-12-23T22:29:54.785Z,10.66
2023-12-23T22:32:21.608Z,10.69
2023-12-23T22:34:49.348Z,10.67
2023-12-23T22:37:17.429Z,10.71
2023-12-23T22:39:48.906Z,10.76
2023-12-23T22:42:17.010Z,10.77
2023-12-23T22:44:44.023Z,10.73
2023-12-23T22:47:10.850Z,10.73
2023-12-23T22:49:38.630Z,10.60
2023-12-23T22:52:05.482Z,10.69
2023-12-23T22:54:32.385Z,10.57
2023-12-23T22:57:00.835Z,10.68
2023-12-23T22:59:27.911Z,10.63
2023-12-23T23:01:54.754Z,10.57
2023-12-23T23:04:21.733Z,10.58
2023-12-23T23:06:48.662Z,10.66
2023-12-23T23:09:19.017Z,10.57
2023-12-23T23:11:45.785Z,10.67
2023-12-23T23:14:12.796Z,10.75
2023-12-23T23:16:39.614Z,10.68
2023-12-23T23:19:07.759Z,10.65
2023-12-23T23:21:35.481Z,10.78
2023-12-23T23:24:02.270Z,10.83
2023-12-23T23:26:29.046Z,10.84
2023-12-23T23:28:56.889Z,10.71
2023-12-23T23:31:23.756Z,10.86
2023-12-23T23:33:50.490Z,10.86
2023-12-23T23:36:17.605Z,10.83
2023-12-23T23:38:44.327Z,10.89
2023-12-23T23:41:12.117Z,10.72
2023-12-23T23:43:39.284Z,10.82
2023-12-23T23:46:13.450Z,10.76
2023-12-23T23:48:45.214Z,10.87
2023-12-23T23:51:19.052Z,10.91
2023-12-23T23:53:45.955Z,10.93
2023-12-23T23:56:17.282Z,10.94
2023-12-23T23:58:46.773Z,10.99
